Time;durP1;ratioP1;P1;durP2;ratioP2;P2;SDS_P1;SDS_P2;PMS_P1;PMS_P2;Temp;Humidity;BMP_temperature;BMP_pressure;BME280_temperature;BME280_humidity;BME280_pressure;Samples;Min_cycle;Max_cycle;Signal;HPM_P1;HPM_P2
2022/05/27 00:00:24;;;;;;;5.07;2.13;;;;;;;16.32;65.25;101793.75;3582699;40;20403;-64
2022/05/27 00:02:50;;;;;;;4.90;2.28;;;;;;;16.25;65.03;101778.88;3579873;40;20088;-64
2022/05/27 00:05:19;;;;;;;7.07;2.15;;;;;;;16.32;65.16;101790.16;3576887;39;20115;-63
2022/05/27 00:07:45;;;;;;;4.95;2.17;;;;;;;16.25;65.07;101773.47;3574470;40;20130;-64
2022/05/27 00:10:14;;;;;;;5.03;2.08;;;;;;;16.30;65.57;101787.59;3573812;40;20092;-65
2022/05/27 00:12:39;;;;;;;5.85;2.20;;;;;;;16.28;65.52;101773.25;3573640;40;20056;-64
2022/05/27 00:15:07;;;;;;;6.35;2.35;;;;;;;16.31;65.22;101786.59;3573562;40;20060;-64
2022/05/27 00:17:32;;;;;;;7.72;2.70;;;;;;;16.30;65.04;101782.16;3574947;40;20128;-63
2022/05/27 00:19:58;;;;;;;7.63;2.50;;;;;;;16.31;65.33;101777.59;3573046;40;20048;-63
2022/05/27 00:22:23;;;;;;;4.50;2.15;;;;;;;16.31;65.42;101772.16;3571716;40;20129;-64
2022/05/27 00:24:49;;;;;;;5.25;2.30;;;;;;;16.31;65.85;101772.16;3573806;40;20049;-63
2022/05/27 00:27:15;;;;;;;3.70;2.00;;;;;;;16.30;65.95;101767.69;3574131;40;20048;-63
2022/05/27 00:29:40;;;;;;;8.65;2.45;;;;;;;16.30;65.59;101776.72;3573778;40;20414;-64
2022/05/27 00:32:07;;;;;;;6.50;2.28;;;;;;;16.26;65.74;101767.03;3573375;40;20106;-64
2022/05/27 00:34:33;;;;;;;9.40;2.10;;;;;;;16.30;65.56;101767.69;3573375;40;20059;-64
2022/05/27 00:37:04;;;;;;;5.30;2.28;;;;;;;16.33;65.69;101778.31;3572958;40;20048;-64
2022/05/27 00:39:30;;;;;;;5.20;2.15;;;;;;;16.30;65.56;101776.72;3573896;40;20084;-64
2022/05/27 00:41:55;;;;;;;6.95;2.65;;;;;;;16.29;65.94;101772.25;3573679;40;20297;-64
2022/05/27 00:44:21;;;;;;;9.13;2.58;;;;;;;16.27;65.68;101766.09;3573021;40;20106;-64
2022/05/27 00:46:46;;;;;;;5.57;2.50;;;;;;;15.96;65.84;101719.41;3574949;40;20299;-64
2022/05/27 00:49:25;;;;;;;5.18;2.53;;;;;;;16.28;65.69;101754.25;3573428;40;20076;-63
2022/05/27 00:52:04;;;;;;;8.57;2.72;;;;;;;16.29;65.96;101766.84;3573727;40;20083;-64
2022/05/27 00:54:31;;;;;;;8.18;2.38;;;;;;;16.27;66.29;101755.25;3572707;40;20092;-64
2022/05/27 00:57:07;;;;;;;5.07;2.65;;;;;;;16.27;65.96;101760.66;3572449;40;20049;-65
2022/05/27 00:59:44;;;;;;;6.18;2.30;;;;;;;16.28;66.66;101761.53;3573952;40;20048;-64
2022/05/27 01:02:10;;;;;;;5.22;2.40;;;;;;;16.25;66.76;101770.75;3573125;40;20857;-64
2022/05/27 01:04:39;;;;;;;8.38;2.83;;;;;;;16.18;67.28;101747.75;3573745;40;20093;-64
2022/05/27 01:07:05;;;;;;;4.78;2.38;;;;;;;16.20;67.68;101756.63;3573498;40;20391;-64
2022/05/27 01:09:35;;;;;;;8.40;2.97;;;;;;;16.18;68.50;101761.31;3571795;40;20272;-64
2022/05/27 01:12:41;;;;;;;3.83;2.60;;;;;;;16.10;69.48;101753.69;3572158;40;20388;-63
2022/05/27 01:15:23;;;;;;;8.40;2.95;;;;;;;16.01;69.28;101755.19;3574198;40;20049;-65
2022/05/27 01:18:07;;;;;;;10.07;3.50;;;;;;;15.97;70.32;101759.09;3573161;40;20083;-63
2022/05/27 01:20:54;;;;;;;;;;;;;;;15.89;71.23;101753.38;3572464;40;20055;-63
2022/05/27 01:24:05;;;;;;;9.63;3.33;;;;;;;15.81;71.40;101749.44;3573857;40;19980;-64
2022/05/27 01:27:10;;;;;;;9.93;3.70;;;;;;;15.76;72.23;101755.16;3573798;40;20056;-64
2022/05/27 01:30:33;;;;;;;8.38;3.47;;;;;;;15.72;72.60;101759.06;3574676;40;20053;-64
2022/05/27 01:33:36;;;;;;;9.50;3.72;;;;;;;15.66;73.67;101759.47;3572263;40;20082;-64
2022/05/27 01:36:19;;;;;;;9.60;3.58;;;;;;;15.61;73.53;101745.38;3572517;40;20048;-64
2022/05/27 01:39:11;;;;;;;10.27;4.90;;;;;;;15.54;74.04;101756.63;3573587;40;20053;-63
2022/05/27 01:41:57;;;;;;;9.80;4.22;;;;;;;15.48;74.45;101751.63;3571592;40;20060;-64
2022/05/27 01:44:56;;;;;;;7.70;3.97;;;;;;;15.45;74.72;101751.84;3573076;40;20288;-65
2022/05/27 01:47:54;;;;;;;11.18;4.00;;;;;;;15.43;75.45;101753.75;3575463;40;20355;-63
2022/05/27 01:50:42;;;;;;;7.88;3.88;;;;;;;15.38;75.64;101753.22;3573333;40;20084;-64
2022/05/27 01:53:23;;;;;;;8.13;4.18;;;;;;;15.29;76.18;101737.59;3571828;40;20073;-63
2022/05/27 01:56:30;;;;;;;8.25;4.28;;;;;;;15.27;77.42;101755.78;3572504;40;20072;-62
2022/05/27 01:59:12;;;;;;;8.55;4.07;;;;;;;15.21;77.52;101753.47;3566048;40;20146;-67
2022/05/27 02:01:46;;;;;;;11.95;5.00;;;;;;;15.15;77.75;101748.47;3572905;40;20351;-67
2022/05/27 02:04:24;;;;;;;10.68;5.10;;;;;;;15.11;78.60;101753.22;3573725;40;20074;-67
2022/05/27 02:07:02;;;;;;;7.25;4.63;;;;;;;15.05;78.88;101745.50;3573471;40;20095;-67
2022/05/27 02:09:56;;;;;;;10.82;5.10;;;;;;;14.80;79.41;101716.44;3573594;40;20043;-67
2022/05/27 02:12:37;;;;;;;;;;;;;;;14.92;80.21;101731.88;3571523;40;20057;-67
2022/05/27 02:15:26;;;;;;;10.85;5.15;;;;;;;14.91;80.67;101749.13;3572821;40;19936;-69
2022/05/27 02:18:06;;;;;;;12.63;5.72;;;;;;;14.85;81.45;101741.38;3572870;40;20387;-69
2022/05/27 02:20:42;;;;;;;12.10;6.22;;;;;;;14.83;81.37;101748.72;3572827;40;20057;-67
2022/05/27 02:23:29;;;;;;;13.98;6.60;;;;;;;14.80;82.00;101752.50;3573150;40;20052;-69
2022/05/27 02:26:00;;;;;;;14.60;6.22;;;;;;;14.72;82.00;101751.28;3574649;40;20097;-67
2022/05/27 02:28:34;;;;;;;14.68;7.07;;;;;;;14.71;83.08;101746.81;3575166;40;20187;-69
2022/05/27 02:31:09;;;;;;;14.05;6.82;;;;;;;14.71;83.25;101746.81;3573982;40;20053;-67
2022/05/27 02:36:42;;;;;;;14.52;6.93;;;;;;;14.66;83.95;101746.25;3575244;40;20493;-68
2022/05/27 02:39:09;;;;;;;11.68;7.00;;;;;;;14.67;84.18;101739.88;3574757;40;20144;-67
2022/05/27 02:41:49;;;;;;;11.07;7.95;;;;;;;14.67;83.96;101748.00;3574695;40;20061;-67
2022/05/27 02:44:45;;;;;;;11.07;6.97;;;;;;;14.66;84.29;101735.44;3573773;40;20066;-68
2022/05/27 02:47:28;;;;;;;12.68;7.60;;;;;;;14.62;84.24;101735.63;3570464;40;20072;-67
2022/05/27 02:50:26;;;;;;;;;;;;;;;14.60;84.43;101740.25;3573266;40;20066;-66
2022/05/27 02:53:45;;;;;;;13.43;8.00;;;;;;;14.56;85.08;101741.44;3574416;40;19939;-67
2022/05/27 02:56:35;;;;;;;13.95;8.00;;;;;;;14.50;85.23;101736.38;3572211;40;20052;-67
2022/05/27 02:59:03;;;;;;;15.45;8.15;;;;;;;14.52;85.55;101737.16;3573385;40;20383;-66
2022/05/27 03:01:29;;;;;;;15.23;9.38;;;;;;;14.53;85.41;101740.78;3577308;40;20037;-66
2022/05/27 03:03:55;;;;;;;14.40;8.88;;;;;;;14.42;85.35;101716.19;3574269;40;20117;-68
2022/05/27 03:06:26;;;;;;;13.00;8.88;;;;;;;14.50;85.54;101730.97;3574078;40;20056;-68
2022/05/27 03:09:05;;;;;;;16.13;8.98;;;;;;;14.48;85.59;101727.47;3573780;40;20051;-67
2022/05/27 03:12:27;;;;;;;14.95;9.48;;;;;;;14.50;85.97;101730.09;3574273;40;20384;-65
2022/05/27 03:15:16;;;;;;;14.30;9.40;;;;;;;14.51;86.36;101732.72;3572703;40;20052;-66
2022/05/27 03:18:27;;;;;;;14.40;9.98;;;;;;;14.50;86.08;101736.38;3574800;40;20052;-67
2022/05/27 03:21:17;;;;;;;13.57;9.35;;;;;;;14.49;86.54;101734.63;3575520;40;20618;-67
2022/05/27 03:23:43;;;;;;;16.42;10.02;;;;;;;14.51;86.36;101738.16;3574478;40;20076;-67
2022/05/27 03:27:03;;;;;;;11.48;9.75;;;;;;;14.50;85.98;101730.09;3573511;40;20063;-67
2022/05/27 03:29:48;;;;;;;15.55;10.75;;;;;;;14.54;86.60;101728.97;3573359;40;20047;-68
2022/05/27 03:32:36;;;;;;;16.73;10.60;;;;;;;14.51;86.02;101729.16;3574191;40;20157;-68
2022/05/27 03:35:35;;;;;;;13.95;10.88;;;;;;;14.51;86.12;101727.31;3571670;40;20059;-68
2022/05/27 03:38:19;;;;;;;12.48;11.13;;;;;;;14.50;86.62;101736.38;3574131;40;20059;-67
2022/05/27 03:41:03;;;;;;;16.42;11.80;;;;;;;14.42;86.76;101713.47;3574004;40;20130;-66
2022/05/27 03:43:31;;;;;;;13.43;11.13;;;;;;;14.49;86.86;101718.38;3574199;40;20134;-66
2022/05/27 03:46:00;;;;;;;21.98;12.43;;;;;;;14.59;86.87;101732.25;3573668;40;20061;-66
2022/05/27 03:48:32;;;;;;;15.73;12.48;;;;;;;14.50;87.02;101709.31;3574549;40;20060;-67
2022/05/27 03:51:17;;;;;;;17.17;12.50;;;;;;;14.66;86.93;101724.59;3572014;40;20284;-67
2022/05/27 03:56:28;;;;;;;16.98;12.90;;;;;;;14.67;86.64;101753.41;3573860;40;20056;-67
2022/05/27 03:58:54;;;;;;;15.77;12.70;;;;;;;14.67;87.21;101743.44;3572728;40;20049;-66
2022/05/27 04:01:25;;;;;;;15.75;11.60;;;;;;;14.67;86.71;101740.72;3572721;40;20073;-66
2022/05/27 04:03:52;;;;;;;14.65;7.93;;;;;;;14.59;85.78;101741.25;3574401;40;20060;-67
2022/05/27 04:06:18;;;;;;;10.23;6.78;;;;;;;14.58;85.16;101744.03;3573750;40;20044;-68
2022/05/27 04:08:44;;;;;;;10.38;5.95;;;;;;;14.23;84.49;101693.00;3574760;40;20054;-68
2022/05/27 04:11:09;;;;;;;7.97;5.18;;;;;;;14.49;84.22;101742.72;3573270;40;20315;-67
2022/05/27 04:13:35;;;;;;;6.88;4.68;;;;;;;14.34;83.98;101708.56;3574284;40;20059;-68
2022/05/27 04:16:01;;;;;;;5.85;4.80;;;;;;;14.51;84.58;101743.56;3574213;40;20114;-69
2022/05/27 04:18:26;;;;;;;8.10;5.43;;;;;;;14.55;84.48;101749.63;3574108;40;20519;-69
2022/05/27 04:20:52;;;;;;;8.82;6.22;;;;;;;14.56;84.97;101748.69;3574245;40;20071;-69
2022/05/27 04:23:18;;;;;;;8.15;6.88;;;;;;;14.58;85.12;101750.31;3573630;40;20056;-68
2022/05/27 04:25:49;;;;;;;9.70;7.70;;;;;;;14.61;85.83;101744.69;3573787;40;20102;-69
2022/05/27 04:28:16;;;;;;;10.50;7.68;;;;;;;14.55;86.26;101736.97;3573613;40;20056;-69
2022/05/27 04:30:45;;;;;;;9.77;7.95;;;;;;;14.60;86.26;101742.97;3575150;40;20406;-69
2022/05/27 04:33:14;;;;;;;11.38;8.20;;;;;;;14.69;86.26;101752.34;3573267;40;20056;-69
2022/05/27 04:35:40;;;;;;;12.82;8.57;;;;;;;14.64;86.43;101730.09;3573407;40;20088;-68
2022/05/27 04:38:07;;;;;;;15.38;8.95;;;;;;;14.71;86.94;101744.09;3573656;40;20303;-68
2022/05/27 04:40:33;;;;;;;11.80;9.15;;;;;;;14.82;86.82;101744.28;3573746;40;20122;-68
2022/05/27 04:42:59;;;;;;;10.27;8.85;;;;;;;14.73;87.06;101726.81;3573467;40;20040;-65
2022/05/27 04:45:25;;;;;;;14.30;9.68;;;;;;;14.90;87.07;101750.06;3574481;40;20072;-65
2022/05/27 04:47:50;;;;;;;17.27;10.55;;;;;;;14.92;87.09;101753.53;3573912;40;20049;-65
2022/05/27 04:50:19;;;;;;;15.55;10.43;;;;;;;14.94;87.12;101739.91;3573518;40;20049;-66
2022/05/27 04:52:45;;;;;;;16.77;11.55;;;;;;;14.98;87.25;101747.72;3573452;40;20056;-66
2022/05/27 04:55:15;;;;;;;11.15;9.55;;;;;;;15.02;87.04;101754.69;3570302;40;20351;-66
2022/05/27 04:57:46;;;;;;;16.50;10.40;;;;;;;15.06;86.90;101750.81;3573505;40;20480;-66
2022/05/27 05:00:21;;;;;;;15.30;10.57;;;;;;;15.11;87.31;101755.91;3573411;40;20250;-66
2022/05/27 05:02:46;;;;;;;13.60;9.93;;;;;;;15.18;87.08;101754.53;3573386;40;20080;-66
2022/05/27 05:05:16;;;;;;;15.57;10.57;;;;;;;15.21;86.53;101757.03;3573625;40;20056;-64
2022/05/27 05:07:47;;;;;;;15.23;10.50;;;;;;;15.25;87.13;101760.41;3573550;40;20051;-64
2022/05/27 05:10:17;;;;;;;15.63;10.35;;;;;;;15.26;86.41;101767.59;3572750;40;20049;-64
2022/05/27 05:12:44;;;;;;;15.70;9.93;;;;;;;15.19;86.91;101739.16;3574867;40;20089;-64
2022/05/27 05:15:12;;;;;;;16.17;10.07;;;;;;;15.37;87.04;101767.72;3573873;40;20060;-64
2022/05/27 05:17:38;;;;;;;18.05;10.68;;;;;;;15.19;86.82;101731.03;3573866;40;20052;-64
2022/05/27 05:20:06;;;;;;;15.82;10.38;;;;;;;15.40;86.24;101758.53;3573081;40;20052;-64
2022/05/27 05:22:31;;;;;;;21.13;10.63;;;;;;;15.33;86.94;101749.94;3571944;40;20152;-63
2022/05/27 05:24:58;;;;;;;16.55;10.05;;;;;;;15.53;86.59;101775.69;3573141;40;20441;-64
2022/05/27 05:27:27;;;;;;;17.67;10.95;;;;;;;15.58;86.41;101775.41;3574164;40;20630;-64
2022/05/27 05:29:55;;;;;;;14.48;9.90;;;;;;;15.61;86.47;101773.34;3573698;40;20153;-64
2022/05/27 05:32:22;;;;;;;18.15;9.88;;;;;;;15.65;85.96;101779.41;3573073;40;20553;-64
2022/05/27 05:34:48;;;;;;;18.55;9.88;;;;;;;15.62;85.54;101785.03;3572799;40;20045;-64
2022/05/27 05:37:15;;;;;;;15.90;9.93;;;;;;;15.64;85.93;101789.41;3572644;40;20100;-64
2022/05/27 05:39:41;;;;;;;18.25;9.65;;;;;;;15.49;85.93;101768.75;3573530;40;20053;-65
2022/05/27 05:42:09;;;;;;;18.65;10.55;;;;;;;15.67;86.20;101799.19;3574657;40;20331;-64
2022/05/27 05:44:36;;;;;;;16.17;9.23;;;;;;;15.69;85.36;101794.53;3572680;40;20065;-65
2022/05/27 05:47:03;;;;;;;18.55;9.10;;;;;;;15.68;84.76;101790.94;3573451;40;20146;-65
2022/05/27 05:49:30;;;;;;;15.50;7.25;;;;;;;15.69;83.06;101797.22;3573798;40;20055;-64
2022/05/27 05:51:59;;;;;;;15.23;7.03;;;;;;;15.61;83.33;101783.31;3572978;40;20052;-65
2022/05/27 05:54:28;;;;;;;12.82;6.57;;;;;;;15.75;82.40;101810.38;3572105;40;20060;-65
2022/05/27 05:56:55;;;;;;;14.27;6.78;;;;;;;15.79;81.81;101811.88;3612342;22;20076;-64
2022/05/27 05:59:22;;;;;;;18.17;7.13;;;;;;;15.79;82.07;101809.19;3582669;40;20056;-65
2022/05/27 06:01:48;;;;;;;13.98;6.45;;;;;;;15.78;81.59;101802.03;3584639;40;20056;-64
2022/05/27 06:04:14;;;;;;;13.30;6.28;;;;;;;15.86;81.47;101806.91;3584497;40;20063;-64
2022/05/27 06:06:40;;;;;;;13.07;5.88;;;;;;;15.93;80.92;101803.69;3585107;40;20400;-64
2022/05/27 06:09:08;;;;;;;15.23;6.25;;;;;;;16.06;81.47;101795.59;3585405;40;20052;-65
2022/05/27 06:11:38;;;;;;;15.32;6.35;;;;;;;16.17;80.38;101792.09;3585010;40;20487;-65
2022/05/27 06:14:05;;;;;;;14.73;5.90;;;;;;;15.78;79.15;101712.56;3584040;40;20372;-64
2022/05/27 06:16:30;;;;;;;12.85;4.85;;;;;;;16.23;78.68;101791.69;3583681;40;20056;-65
2022/05/27 06:18:56;;;;;;;12.40;5.28;;;;;;;16.23;77.24;101791.69;3585135;40;20130;-64
2022/05/27 06:21:21;;;;;;;12.85;4.95;;;;;;;16.31;76.55;101793.88;3583782;40;20056;-64
2022/05/27 06:23:47;;;;;;;12.45;4.85;;;;;;;16.43;77.18;101796.59;3584977;40;20128;-64
2022/05/27 06:26:13;;;;;;;11.60;4.28;;;;;;;16.53;75.59;101804.94;3584438;40;20056;-65
2022/05/27 06:34:23;;;;;;;11.82;3.90;;;;;;;16.78;71.99;101811.34;3583975;40;20125;-65
2022/05/27 06:36:57;;;;;;;8.73;3.65;;;;;;;16.89;72.38;101817.72;3583179;40;20052;-65
2022/05/27 06:39:24;;;;;;;10.50;3.42;;;;;;;16.95;71.23;101821.84;3585484;40;20060;-67
2022/05/27 06:41:50;;;;;;;11.07;3.33;;;;;;;17.02;69.67;101822.28;3585756;40;20318;-66
2022/05/27 06:44:18;;;;;;;10.57;3.47;;;;;;;17.15;69.46;101820.38;3586422;40;20106;-65
2022/05/27 06:46:44;;;;;;;10.80;3.20;;;;;;;17.23;68.08;101815.25;3586762;39;20056;-65
2022/05/27 06:49:10;;;;;;;6.13;2.80;;;;;;;17.33;67.50;101818.16;3584139;40;20059;-65
2022/05/27 06:51:40;;;;;;;9.27;2.92;;;;;;;17.50;66.50;101823.19;3585229;40;20056;-65
2022/05/27 06:54:06;;;;;;;12.95;2.70;;;;;;;17.60;64.47;101828.81;3586018;40;20044;-65
2022/05/27 06:56:40;;;;;;;4.97;2.35;;;;;;;17.70;64.69;101818.97;3586478;39;20321;-64
2022/05/27 06:59:09;;;;;;;5.90;2.38;;;;;;;17.81;64.65;101827.22;3585573;40;20379;-65
2022/05/27 07:01:35;;;;;;;7.38;2.55;;;;;;;17.95;64.64;101826.16;3585824;40;20070;-65
2022/05/27 07:04:02;;;;;;;11.95;3.33;;;;;;;18.18;64.77;101821.66;3587514;40;20064;-65
2022/05/27 07:06:35;;;;;;;9.20;2.70;;;;;;;18.33;62.88;101828.63;3587675;39;20056;-65
2022/05/27 07:09:03;;;;;;;8.75;2.78;;;;;;;18.43;60.77;101827.91;3584550;40;20418;-65
2022/05/27 07:11:29;;;;;;;8.13;2.83;;;;;;;18.53;60.67;101832.47;3583969;40;20549;-65
2022/05/27 07:13:54;;;;;;;6.63;2.90;;;;;;;18.63;58.99;101832.63;3585238;40;20445;-64
2022/05/27 07:16:20;;;;;;;7.88;2.70;;;;;;;18.75;59.39;101823.50;3588497;40;20082;-64
2022/05/27 07:18:46;;;;;;;9.07;3.28;;;;;;;18.81;58.52;101824.88;3586733;40;21484;-65
2022/05/27 07:21:12;;;;;;;9.43;2.80;;;;;;;18.52;57.80;101789.91;3586649;40;20307;-64
2022/05/27 07:23:37;;;;;;;8.70;2.60;;;;;;;18.69;58.22;101834.84;3587477;40;20455;-64
2022/05/27 07:26:03;;;;;;;10.93;2.60;;;;;;;18.42;57.81;101804.38;3584752;40;20051;-64
2022/05/27 07:28:29;;;;;;;8.20;2.40;;;;;;;18.65;56.89;101838.81;3584564;40;20067;-65
2022/05/27 07:30:56;;;;;;;6.82;2.35;;;;;;;18.71;57.01;101842.88;3584956;40;20052;-65
2022/05/27 07:33:22;;;;;;;10.77;2.75;;;;;;;18.58;56.25;101804.00;3585596;40;20108;-65
2022/05/27 07:35:49;;;;;;;6.55;2.42;;;;;;;18.90;56.87;101832.28;3584367;39;20417;-66
2022/05/27 07:38:16;;;;;;;6.53;2.60;;;;;;;19.04;56.74;101842.06;3584785;40;20396;-65
2022/05/27 07:40:42;;;;;;;7.82;2.40;;;;;;;19.13;56.41;101830.41;3585928;40;20110;-66
2022/05/27 07:43:09;;;;;;;6.53;2.15;;;;;;;19.37;56.25;101837.53;3585274;40;20450;-66
2022/05/27 07:45:39;;;;;;;3.90;2.30;;;;;;;19.22;57.23;101796.94;3584696;40;20100;-66
2022/05/27 07:48:05;;;;;;;7.45;2.50;;;;;;;19.59;56.42;101840.22;3584694;40;20044;-64
2022/05/27 07:50:31;;;;;;;6.53;2.38;;;;;;;19.73;55.81;101843.66;3584868;40;20147;-66
2022/05/27 07:52:58;;;;;;;9.25;2.70;;;;;;;19.84;56.23;101838.19;3583578;40;20048;-66
2022/05/27 07:55:23;;;;;;;6.43;2.53;;;;;;;19.93;54.10;101821.03;3584402;39;20056;-66
2022/05/27 07:57:49;;;;;;;8.40;2.60;;;;;;;20.10;53.49;101845.00;3585309;40;20052;-66
2022/05/27 08:00:30;;;;;;;6.57;2.20;;;;;;;20.17;52.92;101838.03;3583965;40;20152;-63
2022/05/27 08:02:56;;;;;;;6.45;2.80;;;;;;;19.96;51.74;101798.94;3589938;39;20080;-63
2022/05/27 08:05:26;;;;;;;7.90;2.83;;;;;;;20.16;51.34;101847.19;3585664;40;20122;-63
2022/05/27 08:07:57;;;;;;;7.78;2.63;;;;;;;19.98;51.84;101843.34;3584800;40;20059;-63
2022/05/27 08:10:28;;;;;;;7.15;2.63;;;;;;;19.97;52.81;101838.84;3590647;40;20058;-63
2022/05/27 08:12:54;;;;;;;5.18;2.42;;;;;;;20.02;53.66;101839.34;3584129;40;20054;-63
2022/05/27 08:15:21;;;;;;;6.15;2.47;;;;;;;20.24;53.11;101852.00;3585966;40;20440;-63
2022/05/27 08:17:47;;;;;;;8.75;3.03;;;;;;;20.26;50.57;101839.06;3584123;40;20051;-64
2022/05/27 08:20:19;;;;;;;6.60;2.63;;;;;;;20.13;51.28;101852.91;3583927;40;20064;-63
2022/05/27 08:22:46;;;;;;;5.93;2.58;;;;;;;19.89;51.25;101858.63;3584876;40;20055;-63
2022/05/27 08:25:13;;;;;;;6.20;2.58;;;;;;;19.52;53.58;101866.28;3583091;40;20052;-64
2022/05/27 08:27:39;;;;;;;5.88;2.70;;;;;;;19.20;55.03;101867.06;3584334;40;20055;-66
2022/05/27 08:30:08;;;;;;;3.92;2.17;;;;;;;18.96;55.43;101860.88;3583269;40;20052;-64
2022/05/27 08:32:34;;;;;;;6.55;2.40;;;;;;;18.82;56.12;101866.59;3584393;40;20045;-63
2022/05/27 08:38:05;;;;;;;3.92;2.13;;;;;;;19.52;55.16;101874.47;3586281;40;20124;-63
2022/05/27 08:41:41;;;;;;;6.88;2.50;;;;;;;20.02;53.45;101866.63;3581614;40;20064;-63
2022/05/27 08:44:45;;;;;;;4.78;2.58;;;;;;;20.44;51.13;101863.94;3560065;40;20053;-63
2022/05/27 08:47:28;;;;;;;6.35;2.72;;;;;;;20.72;49.42;101861.53;3583757;40;20060;-64
2022/05/27 08:50:29;;;;;;;7.60;2.93;;;;;;;21.16;49.64;101867.66;3583433;40;20062;-64
2022/05/27 08:53:29;;;;;;;7.97;2.65;;;;;;;21.05;48.89;101858.50;3584663;40;20052;-64
2022/05/27 08:59:27;;;;;;;8.05;2.50;;;;;;;20.15;50.12;101861.84;3586146;40;20364;-64
2022/05/27 09:02:02;;;;;;;7.82;3.03;;;;;;;20.31;49.89;101871.47;3585191;40;20056;-64
2022/05/27 09:04:43;;;;;;;5.85;2.50;;;;;;;20.73;49.40;101885.97;3585992;40;20056;-64
2022/05/27 09:07:49;;;;;;;5.90;2.40;;;;;;;21.05;47.41;101869.44;3585899;40;20052;-64
2022/05/27 09:10:57;;;;;;;7.40;2.58;;;;;;;21.33;45.85;101884.25;3582393;40;20052;-64
2022/05/27 09:13:37;;;;;;;6.10;2.25;;;;;;;21.48;43.96;101881.16;3585635;40;20420;-65
2022/05/27 09:16:32;;;;;;;7.03;2.53;;;;;;;21.58;43.99;101892.97;3584801;40;20048;-64
2022/05/27 09:19:20;;;;;;;5.97;2.20;;;;;;;21.51;41.58;101881.75;3582330;40;20044;-64
2022/05/27 09:22:13;;;;;;;8.43;2.28;;;;;;;21.51;43.50;101886.34;3580026;40;20047;-64
2022/05/27 09:25:12;;;;;;;6.75;1.90;;;;;;;21.35;41.58;101878.69;3581246;40;20150;-64
2022/05/27 09:28:11;;;;;;;5.20;2.10;;;;;;;21.75;41.55;101878.59;3584566;40;20088;-64
2022/05/27 09:30:39;;;;;;;8.13;2.22;;;;;;;21.94;41.31;101894.19;3584254;40;20402;-64
2022/05/27 09:33:11;;;;;;;5.32;2.63;;;;;;;22.05;41.57;101906.88;3583499;40;20048;-64
2022/05/27 09:35:49;;;;;;;5.90;2.20;;;;;;;22.00;41.93;101896.34;3582082;40;20052;-64
2022/05/27 09:38:25;;;;;;;7.53;2.38;;;;;;;21.55;41.05;101905.06;3583985;40;20290;-66
2022/05/27 09:40:58;;;;;;;6.60;2.28;;;;;;;21.13;43.71;101908.94;3583979;40;20070;-63
2022/05/27 09:43:45;;;;;;;6.35;2.38;;;;;;;21.26;43.66;101915.88;3580620;40;20060;-64
2022/05/27 09:46:24;;;;;;;9.90;2.65;;;;;;;21.32;42.77;101914.47;3583764;40;20072;-63
2022/05/27 09:48:49;;;;;;;9.43;2.83;;;;;;;21.46;42.64;101914.09;3584386;40;20056;-64
2022/05/27 09:51:17;;;;;;;6.07;2.63;;;;;;;21.33;42.08;101916.19;3586943;40;20071;-64
2022/05/27 09:53:49;;;;;;;9.73;2.95;;;;;;;21.25;42.04;101926.94;3585383;40;20444;-64
2022/05/27 09:56:36;;;;;;;7.78;2.70;;;;;;;21.12;40.87;101929.06;3584013;40;20092;-64
2022/05/27 09:59:23;;;;;;;12.52;2.63;;;;;;;20.92;41.46;101933.56;3583375;40;20055;-64
2022/05/27 10:01:50;;;;;;;7.78;2.28;;;;;;;21.13;39.98;101925.34;3583790;40;20095;-64
2022/05/27 10:04:18;;;;;;;6.47;2.25;;;;;;;21.39;39.47;101931.22;3583795;40;20087;-64
2022/05/27 10:06:44;;;;;;;6.18;2.33;;;;;;;21.56;39.40;101936.03;3583846;40;20048;-64
2022/05/27 10:09:33;;;;;;;8.73;2.78;;;;;;;21.41;39.00;101935.56;3583500;40;20052;-63
2022/05/27 10:11:59;;;;;;;9.00;2.65;;;;;;;21.58;41.15;101933.16;3582001;40;20071;-64
2022/05/27 10:14:24;;;;;;;9.02;2.60;;;;;;;21.64;37.82;101928.00;3584650;40;20059;-64
2022/05/27 10:17:13;;;;;;;7.65;2.30;;;;;;;21.62;38.20;101924.53;3585276;40;20052;-64
2022/05/27 10:19:47;;;;;;;6.68;2.35;;;;;;;21.77;37.61;101934.06;3582806;40;20060;-65
2022/05/27 10:22:26;;;;;;;7.45;2.50;;;;;;;21.92;37.16;101917.25;3584717;40;20063;-64
2022/05/27 10:25:11;;;;;;;7.45;2.63;;;;;;;22.17;37.36;101921.31;3584855;40;20206;-64
2022/05/27 10:27:53;;;;;;;8.57;2.28;;;;;;;22.32;36.58;101932.72;3583746;40;20056;-64
2022/05/27 10:30:30;;;;;;;6.45;2.40;;;;;;;22.00;36.35;101937.41;3583999;40;20092;-64
2022/05/27 10:33:16;;;;;;;7.10;2.40;;;;;;;22.17;36.39;101921.31;3580787;40;20063;-63
2022/05/27 10:35:42;;;;;;;8.60;2.85;;;;;;;22.37;36.84;101925.78;3581635;40;20059;-64
2022/05/27 10:38:32;;;;;;;7.18;2.47;;;;;;;22.40;36.61;101932.88;3583192;40;20045;-64
2022/05/27 10:41:34;;;;;;;7.78;2.03;;;;;;;22.02;36.28;101929.06;3578970;40;20052;-64
2022/05/27 10:44:27;;;;;;;6.90;2.33;;;;;;;22.04;36.88;101927.03;3583732;40;20066;-63
2022/05/27 10:46:57;;;;;;;6.95;2.42;;;;;;;22.34;37.49;101920.59;3583575;40;20049;-64
2022/05/27 10:50:01;;;;;;;7.57;2.38;;;;;;;22.86;37.94;101929.31;3585976;40;20083;-64
2022/05/27 10:53:07;;;;;;;8.90;2.60;;;;;;;23.13;37.41;101930.44;3585453;40;20310;-64
2022/05/27 10:56:01;;;;;;;9.77;2.70;;;;;;;22.61;36.09;101925.34;3586454;40;20410;-64
2022/05/27 11:03:05;;;;;;;8.52;2.55;;;;;;;21.53;36.22;101939.03;3584322;40;20055;-64
2022/05/27 11:06:09;;;;;;;7.50;2.70;;;;;;;21.76;36.28;101931.50;3585444;40;20056;-64
2022/05/27 11:08:58;;;;;;;8.85;2.45;;;;;;;22.16;36.63;101931.41;3581728;40;20047;-65
2022/05/27 11:11:43;;;;;;;7.53;2.45;;;;;;;22.44;34.75;101935.16;3585578;40;20418;-64
2022/05/27 11:17:56;;;;;;;8.07;2.58;;;;;;;22.93;34.64;101944.22;3583702;40;21218;-64
2022/05/27 11:20:43;;;;;;;8.95;2.60;;;;;;;23.12;34.83;101934.16;3581428;40;20474;-64
2022/05/27 11:23:11;;;;;;;9.70;2.67;;;;;;;23.40;33.97;101929.56;3584085;40;20412;-65
2022/05/27 11:26:07;;;;;;;7.55;2.58;;;;;;;23.11;33.96;101927.81;3584349;40;20094;-65
2022/05/27 11:28:57;;;;;;;7.53;2.80;;;;;;;22.58;36.04;101936.59;3585042;40;20053;-64
2022/05/27 11:32:10;;;;;;;9.35;2.55;;;;;;;22.80;34.60;101932.63;3585324;40;20047;-64
2022/05/27 11:35:12;;;;;;;8.27;2.30;;;;;;;23.22;34.68;101928.69;3584742;40;20088;-65
2022/05/27 11:38:05;;;;;;;6.15;2.38;;;;;;;23.10;35.21;101930.72;3584568;40;20067;-65
2022/05/27 11:40:46;;;;;;;6.78;2.58;;;;;;;22.75;35.76;101940.47;3583760;40;20056;-65
2022/05/27 11:43:47;;;;;;;11.32;2.55;;;;;;;22.08;36.19;101944.06;3584338;40;20087;-65
2022/05/27 11:46:33;;;;;;;8.88;2.35;;;;;;;21.42;37.90;101940.03;3579852;40;20052;-65
2022/05/27 11:49:25;;;;;;;8.18;2.28;;;;;;;21.22;37.00;101951.88;3584777;40;20054;-65
2022/05/27 11:52:40;;;;;;;7.55;2.42;;;;;;;21.68;38.07;101964.16;3584990;40;20100;-65
2022/05/27 11:55:26;;;;;;;8.43;2.42;;;;;;;22.19;35.67;101933.84;3583323;40;20099;-65
2022/05/27 11:58:24;;;;;;;9.23;2.40;;;;;;;22.65;35.38;101943.22;3582568;40;20147;-65
2022/05/27 12:01:11;;;;;;;7.78;2.30;;;;;;;23.10;34.35;101931.59;3585357;40;20048;-65
2022/05/27 12:03:51;;;;;;;6.65;2.28;;;;;;;23.32;31.85;101949.56;3581726;40;20130;-65
2022/05/27 12:06:31;;;;;;;7.95;2.53;;;;;;;23.51;33.31;101955.97;3584855;40;20100;-66
2022/05/27 12:09:09;;;;;;;9.02;2.70;;;;;;;23.48;33.09;101945.31;3582075;40;20052;-64
2022/05/27 12:11:48;;;;;;;9.60;2.75;;;;;;;22.75;34.27;101948.69;3581917;40;20051;-65
2022/05/27 12:14:32;;;;;;;9.48;2.90;;;;;;;22.81;36.00;101945.34;3584329;40;20071;-64
2022/05/27 12:17:02;;;;;;;8.02;2.67;;;;;;;23.11;34.30;101957.13;3582721;40;20056;-65
2022/05/27 12:19:38;;;;;;;7.15;2.30;;;;;;;23.32;33.90;101957.78;3580832;40;20126;-65
2022/05/27 12:22:21;;;;;;;8.65;2.60;;;;;;;23.58;32.63;101951.59;3583313;40;20386;-64
2022/05/27 12:24:54;;;;;;;7.78;2.35;;;;;;;23.68;32.75;101952.41;3583813;40;20087;-65
2022/05/27 12:27:21;;;;;;;8.07;2.55;;;;;;;23.73;31.01;101941.88;3584787;40;20060;-64
2022/05/27 12:29:51;;;;;;;6.72;2.10;;;;;;;23.52;32.05;101905.53;3585426;40;20072;-65